sensor_id;sensor_type;location;lat;lon;timestamp;pressure;altitude;pressure_sealevel;temperature;humidity
8366;BME280;4220;42.502;24.188;2023-03-13T00:01:38;95468.75;;;0.70;89.75
8366;BME280;4220;42.502;24.188;2023-03-13T00:04:06;95464.34;;;0.70;89.94
8366;BME280;4220;42.502;24.188;2023-03-13T00:06:34;95466.66;;;0.73;89.34
8366;BME280;4220;42.502;24.188;2023-03-13T00:09:03;95475.88;;;0.85;89.48
8366;BME280;4220;42.502;24.188;2023-03-13T00:11:30;95468.72;;;0.87;89.07
8366;BME280;4220;42.502;24.188;2023-03-13T00:13:59;95473.84;;;0.97;88.21
8366;BME280;4220;42.502;24.188;2023-03-13T00:16:27;95423.34;;;0.62;87.41
8366;BME280;4220;42.502;24.188;2023-03-13T00:18:56;95473.84;;;0.71;89.58
8366;BME280;4220;42.502;24.188;2023-03-13T00:21:25;95474.22;;;0.84;88.95
8366;BME280;4220;42.502;24.188;2023-03-13T00:23:53;95419.41;;;0.58;88.23
8366;BME280;4220;42.502;24.188;2023-03-13T00:26:21;95477.13;;;0.81;88.55
8366;BME280;4220;42.502;24.188;2023-03-13T00:28:49;95479.06;;;0.71;90.23
8366;BME280;4220;42.502;24.188;2023-03-13T00:31:17;95473.66;;;0.73;89.69
8366;BME280;4220;42.502;24.188;2023-03-13T00:33:46;95464.50;;;0.69;89.93
8366;BME280;4220;42.502;24.188;2023-03-13T00:36:17;95460.16;;;0.77;89.82
8366;BME280;4220;42.502;24.188;2023-03-13T00:38:44;95458.72;;;0.83;88.07
8366;BME280;4220;42.502;24.188;2023-03-13T00:41:13;95458.94;;;0.89;85.66
8366;BME280;4220;42.502;24.188;2023-03-13T00:43:41;95467.22;;;0.85;83.99
8366;BME280;4220;42.502;24.188;2023-03-13T00:46:09;95419.06;;;0.53;84.11
8366;BME280;4220;42.502;24.188;2023-03-13T00:48:36;95463.41;;;0.71;84.44
8366;BME280;4220;42.502;24.188;2023-03-13T00:51:04;95460.44;;;0.74;85.01
8366;BME280;4220;42.502;24.188;2023-03-13T00:53:32;95463.31;;;0.63;85.92
8366;BME280;4220;42.502;24.188;2023-03-13T00:56:02;95459.38;;;0.59;86.63
8366;BME280;4220;42.502;24.188;2023-03-13T00:58:30;95467.91;;;0.69;86.75
8366;BME280;4220;42.502;24.188;2023-03-13T01:01:05;95421.06;;;0.42;86.63
8366;BME280;4220;42.502;24.188;2023-03-13T01:03:33;95463.88;;;0.75;90.10
8366;BME280;4220;42.502;24.188;2023-03-13T01:06:01;95469.72;;;0.69;89.08
8366;BME280;4220;42.502;24.188;2023-03-13T01:08:29;95468.69;;;0.61;88.02
8366;BME280;4220;42.502;24.188;2023-03-13T01:10:58;95467.06;;;0.60;87.29
8366;BME280;4220;42.502;24.188;2023-03-13T01:13:25;95469.97;;;0.57;87.80
8366;BME280;4220;42.502;24.188;2023-03-13T01:15:52;95469.59;;;0.52;87.95
8366;BME280;4220;42.502;24.188;2023-03-13T01:18:19;95473.22;;;0.59;87.60
8366;BME280;4220;42.502;24.188;2023-03-13T01:20:46;95478.00;;;0.64;86.85
8366;BME280;4220;42.502;24.188;2023-03-13T01:23:13;95471.97;;;0.63;84.80
8366;BME280;4220;42.502;24.188;2023-03-13T01:25:40;95477.25;;;0.72;83.91
8366;BME280;4220;42.502;24.188;2023-03-13T01:28:08;95483.16;;;0.74;83.51
8366;BME280;4220;42.502;24.188;2023-03-13T01:30:35;95470.47;;;0.79;83.15
8366;BME280;4220;42.502;24.188;2023-03-13T01:33:02;95473.41;;;0.84;82.85
8366;BME280;4220;42.502;24.188;2023-03-13T01:35:28;95439.63;;;0.56;82.21
8366;BME280;4220;42.502;24.188;2023-03-13T01:37:55;95481.34;;;0.74;84.13
8366;BME280;4220;42.502;24.188;2023-03-13T01:40:22;95473.84;;;0.71;85.10
8366;BME280;4220;42.502;24.188;2023-03-13T01:42:51;95476.94;;;0.75;83.01
8366;BME280;4220;42.502;24.188;2023-03-13T01:48:36;95482.50;;;0.54;81.74
8366;BME280;4220;42.502;24.188;2023-03-13T01:51:06;95487.72;;;0.36;84.37
8366;BME280;4220;42.502;24.188;2023-03-13T01:53:35;95492.03;;;0.28;86.00
8366;BME280;4220;42.502;24.188;2023-03-13T01:56:05;95490.16;;;0.20;87.82
8366;BME280;4220;42.502;24.188;2023-03-13T01:58:34;95503.16;;;0.12;87.71
8366;BME280;4220;42.502;24.188;2023-03-13T02:01:04;95488.00;;;0.16;88.62
8366;BME280;4220;42.502;24.188;2023-03-13T02:03:33;95492.41;;;0.15;88.60
8366;BME280;4220;42.502;24.188;2023-03-13T02:06:01;95499.66;;;0.21;88.50
8366;BME280;4220;42.502;24.188;2023-03-13T02:08:33;95486.31;;;0.24;87.53
8366;BME280;4220;42.502;24.188;2023-03-13T02:11:06;95504.47;;;0.16;87.09
8366;BME280;4220;42.502;24.188;2023-03-13T02:13:34;95506.50;;;0.05;88.03
8366;BME280;4220;42.502;24.188;2023-03-13T02:16:01;95421.00;;;-0.54;88.71
8366;BME280;4220;42.502;24.188;2023-03-13T02:18:28;95517.50;;;-0.02;90.01
8366;BME280;4220;42.502;24.188;2023-03-13T02:21:09;95512.63;;;-0.14;93.43
8366;BME280;4220;42.502;24.188;2023-03-13T02:23:43;95514.56;;;-0.16;95.79
8366;BME280;4220;42.502;24.188;2023-03-13T02:26:14;95516.22;;;-0.15;95.90
8366;BME280;4220;42.502;24.188;2023-03-13T02:28:41;95476.16;;;-0.41;96.41
8366;BME280;4220;42.502;24.188;2023-03-13T02:31:08;95518.38;;;-0.11;96.36
8366;BME280;4220;42.502;24.188;2023-03-13T02:33:38;95520.53;;;-0.06;96.30
8366;BME280;4220;42.502;24.188;2023-03-13T02:36:06;95522.19;;;-0.05;96.86
8366;BME280;4220;42.502;24.188;2023-03-13T02:38:37;95533.38;;;0.05;97.59
8366;BME280;4220;42.502;24.188;2023-03-13T02:41:05;95534.72;;;0.09;93.87
8366;BME280;4220;42.502;24.188;2023-03-13T02:43:34;95541.88;;;0.07;89.62
8366;BME280;4220;42.502;24.188;2023-03-13T02:46:07;95546.56;;;0.04;89.08
8366;BME280;4220;42.502;24.188;2023-03-13T02:48:36;95505.03;;;-0.25;88.94
8366;BME280;4220;42.502;24.188;2023-03-13T02:51:06;95555.34;;;0.03;90.03
8366;BME280;4220;42.502;24.188;2023-03-13T02:53:34;95542.75;;;-0.02;90.33
8366;BME280;4220;42.502;24.188;2023-03-13T02:56:03;95553.09;;;0.08;91.22
8366;BME280;4220;42.502;24.188;2023-03-13T02:58:38;95556.94;;;0.13;91.91
8366;BME280;4220;42.502;24.188;2023-03-13T03:01:06;95556.94;;;0.13;92.06
8366;BME280;4220;42.502;24.188;2023-03-13T03:03:33;95552.31;;;0.07;92.17
8366;BME280;4220;42.502;24.188;2023-03-13T03:06:01;95569.28;;;0.11;92.34
8366;BME280;4220;42.502;24.188;2023-03-13T03:08:28;95557.94;;;0.03;92.56
8366;BME280;4220;42.502;24.188;2023-03-13T03:10:55;95567.19;;;-0.03;93.09
8366;BME280;4220;42.502;24.188;2023-03-13T03:13:22;95551.97;;;-0.08;89.70
8366;BME280;4220;42.502;24.188;2023-03-13T03:15:50;95570.47;;;-0.01;87.54
8366;BME280;4220;42.502;24.188;2023-03-13T03:18:17;95571.41;;;-0.02;87.18
8366;BME280;4220;42.502;24.188;2023-03-13T03:20:44;95571.56;;;-0.04;86.80
8366;BME280;4220;42.502;24.188;2023-03-13T03:23:10;95576.63;;;-0.02;86.71
8366;BME280;4220;42.502;24.188;2023-03-13T03:25:37;95578.84;;;-0.07;86.15
8366;BME280;4220;42.502;24.188;2023-03-13T03:28:04;95599.63;;;-0.15;86.44
8366;BME280;4220;42.502;24.188;2023-03-13T03:30:31;95603.78;;;-0.22;87.21
8366;BME280;4220;42.502;24.188;2023-03-13T03:33:01;95610.00;;;-0.42;88.93
8366;BME280;4220;42.502;24.188;2023-03-13T03:35:28;95603.41;;;-0.46;90.61
8366;BME280;4220;42.502;24.188;2023-03-13T03:37:55;95604.41;;;-0.47;91.62
8366;BME280;4220;42.502;24.188;2023-03-13T03:40:22;95611.53;;;-0.49;93.09
8366;BME280;4220;42.502;24.188;2023-03-13T03:42:48;95611.00;;;-0.53;93.49
8366;BME280;4220;42.502;24.188;2023-03-13T03:45:15;95620.84;;;-0.56;94.04
8366;BME280;4220;42.502;24.188;2023-03-13T03:47:43;95615.09;;;-0.50;95.36
8366;BME280;4220;42.502;24.188;2023-03-13T03:50:11;95608.22;;;-0.42;95.02
8366;BME280;4220;42.502;24.188;2023-03-13T03:52:38;95600.13;;;-0.48;93.25
8366;BME280;4220;42.502;24.188;2023-03-13T03:55:05;95610.13;;;-0.44;92.36
8366;BME280;4220;42.502;24.188;2023-03-13T03:57:32;95627.13;;;-0.30;90.51
8366;BME280;4220;42.502;24.188;2023-03-13T03:59:58;95626.13;;;-0.29;89.37
8366;BME280;4220;42.502;24.188;2023-03-13T04:02:25;95634.81;;;-0.38;89.65
8366;BME280;4220;42.502;24.188;2023-03-13T04:04:52;95642.66;;;-0.48;92.27
8366;BME280;4220;42.502;24.188;2023-03-13T04:07:20;95657.06;;;-0.53;94.79
8366;BME280;4220;42.502;24.188;2023-03-13T04:09:47;95652.69;;;-0.62;97.14
8366;BME280;4220;42.502;24.188;2023-03-13T04:12:14;95651.19;;;-0.65;98.22
8366;BME280;4220;42.502;24.188;2023-03-13T04:14:40;95644.59;;;-0.59;98.04
8366;BME280;4220;42.502;24.188;2023-03-13T04:17:07;95653.38;;;-0.60;97.01
8366;BME280;4220;42.502;24.188;2023-03-13T04:19:34;95660.78;;;-0.75;97.34
8366;BME280;4220;42.502;24.188;2023-03-13T04:22:01;95666.13;;;-0.96;99.70
8366;BME280;4220;42.502;24.188;2023-03-13T04:24:29;95666.69;;;-0.92;100.00
8366;BME280;4220;42.502;24.188;2023-03-13T04:26:56;95675.47;;;-0.84;100.00
8366;BME280;4220;42.502;24.188;2023-03-13T04:29:23;95680.28;;;-0.89;100.00
8366;BME280;4220;42.502;24.188;2023-03-13T04:31:50;95674.50;;;-1.21;100.00
8366;BME280;4220;42.502;24.188;2023-03-13T04:34:16;95679.56;;;-1.19;100.00
8366;BME280;4220;42.502;24.188;2023-03-13T04:36:43;95681.06;;;-1.07;100.00
8366;BME280;4220;42.502;24.188;2023-03-13T04:39:10;95690.66;;;-0.98;100.00
8366;BME280;4220;42.502;24.188;2023-03-13T04:41:38;95686.16;;;-0.87;100.00
8366;BME280;4220;42.502;24.188;2023-03-13T04:44:05;95689.19;;;-0.82;98.50
8366;BME280;4220;42.502;24.188;2023-03-13T04:46:32;95684.25;;;-0.94;98.54
8366;BME280;4220;42.502;24.188;2023-03-13T04:48:58;95701.91;;;-0.79;98.66
8366;BME280;4220;42.502;24.188;2023-03-13T04:51:25;95705.63;;;-0.72;99.04
8366;BME280;4220;42.502;24.188;2023-03-13T04:53:52;95713.56;;;-0.83;100.00
8366;BME280;4220;42.502;24.188;2023-03-13T04:56:21;95712.88;;;-0.85;100.00
8366;BME280;4220;42.502;24.188;2023-03-13T04:58:50;95707.66;;;-0.75;100.00
8366;BME280;4220;42.502;24.188;2023-03-13T05:01:16;95710.41;;;-0.67;100.00
8366;BME280;4220;42.502;24.188;2023-03-13T05:03:43;95723.16;;;-0.64;100.00
8366;BME280;4220;42.502;24.188;2023-03-13T05:06:10;95724.25;;;-0.57;100.00
8366;BME280;4220;42.502;24.188;2023-03-13T05:08:37;95727.13;;;-0.50;100.00
8366;BME280;4220;42.502;24.188;2023-03-13T05:11:04;95733.81;;;-0.38;100.00
8366;BME280;4220;42.502;24.188;2023-03-13T05:13:31;95735.31;;;-0.26;98.91
8366;BME280;4220;42.502;24.188;2023-03-13T05:15:59;95730.34;;;-0.20;98.08
8366;BME280;4220;42.502;24.188;2023-03-13T05:18:27;95676.78;;;-0.41;96.29
8366;BME280;4220;42.502;24.188;2023-03-13T05:20:54;95743.91;;;0.03;95.31
8366;BME280;4220;42.502;24.188;2023-03-13T05:23:20;95727.75;;;-0.20;94.08
8366;BME280;4220;42.502;24.188;2023-03-13T05:25:47;95745.44;;;-0.04;92.20
8366;BME280;4220;42.502;24.188;2023-03-13T05:28:14;95638.81;;;-0.53;87.77
8366;BME280;4220;42.502;24.188;2023-03-13T05:30:41;95729.34;;;0.00;86.47
8366;BME280;4220;42.502;24.188;2023-03-13T05:33:09;95730.97;;;0.11;86.03
8366;BME280;4220;42.502;24.188;2023-03-13T05:35:36;95728.94;;;0.05;85.94
8366;BME280;4220;42.502;24.188;2023-03-13T05:38:03;95739.19;;;0.16;86.48
8366;BME280;4220;42.502;24.188;2023-03-13T05:40:30;95730.44;;;0.17;87.21
8366;BME280;4220;42.502;24.188;2023-03-13T05:42:56;95730.16;;;0.11;89.37
8366;BME280;4220;42.502;24.188;2023-03-13T05:45:24;95739.00;;;0.00;89.81
8366;BME280;4220;42.502;24.188;2023-03-13T05:47:51;95742.13;;;-0.06;92.09
8366;BME280;4220;42.502;24.188;2023-03-13T05:50:19;95743.81;;;-0.05;93.89
8366;BME280;4220;42.502;24.188;2023-03-13T05:52:46;95753.91;;;0.08;92.99
8366;BME280;4220;42.502;24.188;2023-03-13T05:55:13;95759.38;;;0.14;93.38
8366;BME280;4220;42.502;24.188;2023-03-13T05:57:43;95757.84;;;0.21;93.68
8366;BME280;4220;42.502;24.188;2023-03-13T06:00:11;95751.72;;;0.40;92.86
8366;BME280;4220;42.502;24.188;2023-03-13T06:02:38;95749.19;;;0.57;90.79
8366;BME280;4220;42.502;24.188;2023-03-13T06:05:05;95752.97;;;0.73;89.24
8366;BME280;4220;42.502;24.188;2023-03-13T06:07:34;95749.63;;;0.80;87.26
8366;BME280;4220;42.502;24.188;2023-03-13T06:10:00;95717.25;;;0.73;85.67
8366;BME280;4220;42.502;24.188;2023-03-13T06:12:27;95752.75;;;1.11;84.10
8366;BME280;4220;42.502;24.188;2023-03-13T06:14:54;95753.22;;;1.24;83.08
8366;BME280;4220;42.502;24.188;2023-03-13T06:17:21;95773.00;;;1.44;82.20
8366;BME280;4220;42.502;24.188;2023-03-13T06:19:49;95769.50;;;1.53;80.42
8366;BME280;4220;42.502;24.188;2023-03-13T06:22:16;95769.94;;;1.66;80.07
8366;BME280;4220;42.502;24.188;2023-03-13T06:24:45;95777.53;;;1.77;79.64
8366;BME280;4220;42.502;24.188;2023-03-13T06:27:14;95782.19;;;1.83;79.18
8366;BME280;4220;42.502;24.188;2023-03-13T06:29:41;95764.91;;;1.90;78.94
8366;BME280;4220;42.502;24.188;2023-03-13T06:32:07;95769.81;;;2.11;77.97
8366;BME280;4220;42.502;24.188;2023-03-13T06:34:35;95770.97;;;2.17;77.91
8366;BME280;4220;42.502;24.188;2023-03-13T06:37:02;95774.03;;;2.30;77.61
8366;BME280;4220;42.502;24.188;2023-03-13T06:39:29;95773.59;;;2.42;77.92
8366;BME280;4220;42.502;24.188;2023-03-13T06:41:57;95779.09;;;2.57;78.26
8366;BME280;4220;42.502;24.188;2023-03-13T06:44:24;95776.19;;;2.68;78.08
8366;BME280;4220;42.502;24.188;2023-03-13T06:46:51;95777.72;;;2.79;77.96
8366;BME280;4220;42.502;24.188;2023-03-13T06:49:18;95773.91;;;2.73;77.11
8366;BME280;4220;42.502;24.188;2023-03-13T06:51:45;95784.09;;;2.76;77.26
8366;BME280;4220;42.502;24.188;2023-03-13T06:54:12;95794.56;;;2.76;78.11
8366;BME280;4220;42.502;24.188;2023-03-13T06:56:39;95791.69;;;2.87;76.58
8366;BME280;4220;42.502;24.188;2023-03-13T06:59:07;95796.81;;;2.97;75.36
8366;BME280;4220;42.502;24.188;2023-03-13T07:01:34;95778.50;;;2.71;75.50
8366;BME280;4220;42.502;24.188;2023-03-13T07:04:01;95798.19;;;2.83;77.14
8366;BME280;4220;42.502;24.188;2023-03-13T07:06:27;95778.31;;;3.06;76.27
8366;BME280;4220;42.502;24.188;2023-03-13T07:08:54;95786.13;;;3.40;74.67
8366;BME280;4220;42.502;24.188;2023-03-13T07:11:21;95746.94;;;3.30;73.49
8366;BME280;4220;42.502;24.188;2023-03-13T07:13:49;95782.41;;;3.75;72.47
8366;BME280;4220;42.502;24.188;2023-03-13T07:16:17;95790.28;;;3.91;71.67
8366;BME280;4220;42.502;24.188;2023-03-13T07:18:44;95785.88;;;4.08;71.10
8366;BME280;4220;42.502;24.188;2023-03-13T07:21:11;95784.88;;;4.25;70.19
8366;BME280;4220;42.502;24.188;2023-03-13T07:23:39;95780.75;;;4.46;68.69
8366;BME280;4220;42.502;24.188;2023-03-13T07:26:07;95726.94;;;4.34;68.25
8366;BME280;4220;42.502;24.188;2023-03-13T07:28:36;95786.72;;;4.87;66.95
8366;BME280;4220;42.502;24.188;2023-03-13T07:31:04;95790.59;;;4.99;65.35
8366;BME280;4220;42.502;24.188;2023-03-13T07:33:33;95785.19;;;5.01;63.44
8366;BME280;4220;42.502;24.188;2023-03-13T07:36:00;95764.63;;;5.04;63.51
8366;BME280;4220;42.502;24.188;2023-03-13T07:38:27;95776.50;;;5.31;62.72
8366;BME280;4220;42.502;24.188;2023-03-13T07:40:55;95720.41;;;5.16;62.09
8366;BME280;4220;42.502;24.188;2023-03-13T07:43:23;95760.75;;;5.54;61.19
8366;BME280;4220;42.502;24.188;2023-03-13T07:45:52;95737.97;;;5.69;59.92
8366;BME280;4220;42.502;24.188;2023-03-13T07:48:20;95750.53;;;5.89;55.08
8366;BME280;4220;42.502;24.188;2023-03-13T07:50:48;95757.50;;;5.97;54.14
8366;BME280;4220;42.502;24.188;2023-03-13T07:53:16;95731.03;;;5.99;53.48
8366;BME280;4220;42.502;24.188;2023-03-13T07:55:56;95761.22;;;6.25;53.29
8366;BME280;4220;42.502;24.188;2023-03-13T07:58:25;95771.56;;;6.27;53.43
8366;BME280;4220;42.502;24.188;2023-03-13T08:00:52;95764.38;;;6.43;53.68
8366;BME280;4220;42.502;24.188;2023-03-13T08:03:19;95771.38;;;6.51;52.62
8366;BME280;4220;42.502;24.188;2023-03-13T08:05:45;95781.00;;;6.58;52.25
8366;BME280;4220;42.502;24.188;2023-03-13T08:08:14;95784.63;;;6.43;51.44
8366;BME280;4220;42.502;24.188;2023-03-13T08:10:41;95783.63;;;6.58;51.34
8366;BME280;4220;42.502;24.188;2023-03-13T08:13:09;95777.84;;;6.63;50.08
8366;BME280;4220;42.502;24.188;2023-03-13T08:15:36;95778.00;;;6.62;50.79
8366;BME280;4220;42.502;24.188;2023-03-13T08:18:03;95789.66;;;6.67;50.24
8366;BME280;4220;42.502;24.188;2023-03-13T08:20:29;95789.38;;;6.62;50.25
8366;BME280;4220;42.502;24.188;2023-03-13T08:22:56;95778.84;;;6.62;49.72
8366;BME280;4220;42.502;24.188;2023-03-13T08:25:25;95777.94;;;6.70;49.14
8366;BME280;4220;42.502;24.188;2023-03-13T08:27:51;95775.03;;;6.65;49.86
8366;BME280;4220;42.502;24.188;2023-03-13T08:30:18;95742.47;;;6.57;50.05
8366;BME280;4220;42.502;24.188;2023-03-13T08:32:45;95781.56;;;6.98;49.56
8366;BME280;4220;42.502;24.188;2023-03-13T08:35:12;95777.22;;;7.05;48.85
8366;BME280;4220;42.502;24.188;2023-03-13T08:37:39;95774.09;;;7.16;48.61
8366;BME280;4220;42.502;24.188;2023-03-13T08:40:08;95759.38;;;7.21;48.02
8366;BME280;4220;42.502;24.188;2023-03-13T08:42:37;95759.81;;;7.25;47.65
8366;BME280;4220;42.502;24.188;2023-03-13T08:45:06;95758.81;;;7.26;47.75
8366;BME280;4220;42.502;24.188;2023-03-13T08:47:33;95753.25;;;7.36;47.67
8366;BME280;4220;42.502;24.188;2023-03-13T08:50:00;95752.31;;;7.43;47.60
8366;BME280;4220;42.502;24.188;2023-03-13T08:52:27;95750.72;;;7.63;47.12
8366;BME280;4220;42.502;24.188;2023-03-13T08:54:54;95744.78;;;7.76;46.69
8366;BME280;4220;42.502;24.188;2023-03-13T08:57:21;95747.59;;;7.96;46.01
8366;BME280;4220;42.502;24.188;2023-03-13T08:59:49;95749.84;;;8.20;45.28
8366;BME280;4220;42.502;24.188;2023-03-13T09:02:17;95757.31;;;8.16;44.58
8366;BME280;4220;42.502;24.188;2023-03-13T09:04:46;95764.13;;;8.25;45.32
8366;BME280;4220;42.502;24.188;2023-03-13T09:07:14;95749.53;;;8.29;44.60
8366;BME280;4220;42.502;24.188;2023-03-13T09:09:42;95758.63;;;8.48;44.53
8366;BME280;4220;42.502;24.188;2023-03-13T09:12:09;95719.75;;;8.42;43.96
8366;BME280;4220;42.502;24.188;2023-03-13T09:14:36;95753.78;;;8.79;43.92
8366;BME280;4220;42.502;24.188;2023-03-13T09:17:04;95763.03;;;8.96;43.29
8366;BME280;4220;42.502;24.188;2023-03-13T09:19:31;95758.53;;;8.97;43.14
8366;BME280;4220;42.502;24.188;2023-03-13T09:21:58;95758.38;;;9.05;42.83
8366;BME280;4220;42.502;24.188;2023-03-13T09:24:25;95764.41;;;9.27;42.89
8366;BME280;4220;42.502;24.188;2023-03-13T09:26:52;95749.03;;;9.43;42.17
8366;BME280;4220;42.502;24.188;2023-03-13T09:29:19;95754.31;;;9.50;41.94
8366;BME280;4220;42.502;24.188;2023-03-13T09:31:46;95748.25;;;9.62;41.75
8366;BME280;4220;42.502;24.188;2023-03-13T09:34:14;95741.72;;;9.58;41.77
8366;BME280;4220;42.502;24.188;2023-03-13T09:36:41;95750.19;;;9.34;41.95
8366;BME280;4220;42.502;24.188;2023-03-13T09:39:07;95756.44;;;9.20;42.46
8366;BME280;4220;42.502;24.188;2023-03-13T09:41:38;95749.28;;;9.14;43.00
8366;BME280;4220;42.502;24.188;2023-03-13T09:44:16;95741.22;;;9.29;42.85
8366;BME280;4220;42.502;24.188;2023-03-13T09:46:47;95754.72;;;9.53;43.28
8366;BME280;4220;42.502;24.188;2023-03-13T09:49:26;95753.94;;;9.53;42.37
8366;BME280;4220;42.502;24.188;2023-03-13T09:51:59;95751.31;;;9.59;42.99
8366;BME280;4220;42.502;24.188;2023-03-13T09:54:33;95748.25;;;9.62;42.38
8366;BME280;4220;42.502;24.188;2023-03-13T09:57:09;95753.78;;;9.67;42.02
8366;BME280;4220;42.502;24.188;2023-03-13T09:59:44;95747.88;;;9.78;41.95
8366;BME280;4220;42.502;24.188;2023-03-13T10:02:21;95729.13;;;9.73;41.74
8366;BME280;4220;42.502;24.188;2023-03-13T10:04:56;95746.66;;;9.81;41.06
8366;BME280;4220;42.502;24.188;2023-03-13T10:07:26;95740.19;;;10.03;41.48
8366;BME280;4220;42.502;24.188;2023-03-13T10:09:52;95741.28;;;10.22;40.95
8366;BME280;4220;42.502;24.188;2023-03-13T10:12:22;95747.16;;;10.37;40.38
8366;BME280;4220;42.502;24.188;2023-03-13T10:15:02;95751.88;;;10.48;40.17
8366;BME280;4220;42.502;24.188;2023-03-13T10:17:35;95746.56;;;10.35;39.60
8366;BME280;4220;42.502;24.188;2023-03-13T10:20:17;95729.63;;;10.42;39.16
8366;BME280;4220;42.502;24.188;2023-03-13T10:22:47;95734.13;;;10.68;39.33
8366;BME280;4220;42.502;24.188;2023-03-13T10:25:23;95732.25;;;10.88;38.62
8366;BME280;4220;42.502;24.188;2023-03-13T10:27:52;95726.69;;;11.09;38.54
8366;BME280;4220;42.502;24.188;2023-03-13T10:30:23;95747.06;;;11.22;38.66
8366;BME280;4220;42.502;24.188;2023-03-13T10:32:58;95738.88;;;11.30;37.86
8366;BME280;4220;42.502;24.188;2023-03-13T10:35:33;95723.09;;;10.65;38.48
8366;BME280;4220;42.502;24.188;2023-03-13T10:38:05;95725.13;;;10.76;38.89
8366;BME280;4220;42.502;24.188;2023-03-13T10:40:34;95714.88;;;10.92;38.79
8366;BME280;4220;42.502;24.188;2023-03-13T10:43:03;95716.44;;;11.20;38.25
8366;BME280;4220;42.502;24.188;2023-03-13T10:45:33;95714.34;;;11.35;36.55
8366;BME280;4220;42.502;24.188;2023-03-13T10:48:03;95707.69;;;11.06;37.29
8366;BME280;4220;42.502;24.188;2023-03-13T10:50:34;95661.06;;;10.59;36.93
8366;BME280;4220;42.502;24.188;2023-03-13T10:53:25;95692.19;;;10.96;37.44
8366;BME280;4220;42.502;24.188;2023-03-13T10:56:01;95662.28;;;11.21;36.86
8366;BME280;4220;42.502;24.188;2023-03-13T10:58:33;95696.81;;;11.65;35.58
8366;BME280;4220;42.502;24.188;2023-03-13T11:01:18;95685.91;;;11.86;35.21
8366;BME280;4220;42.502;24.188;2023-03-13T11:03:47;95692.09;;;12.05;34.92
8366;BME280;4220;42.502;24.188;2023-03-13T11:06:28;95688.94;;;12.14;34.17
8366;BME280;4220;42.502;24.188;2023-03-13T11:09:10;95677.06;;;12.17;34.30
8366;BME280;4220;42.502;24.188;2023-03-13T11:11:43;95673.09;;;12.51;33.59
8366;BME280;4220;42.502;24.188;2023-03-13T11:14:14;95663.72;;;12.48;33.61
8366;BME280;4220;42.502;24.188;2023-03-13T11:16:47;95655.50;;;12.50;34.13
8366;BME280;4220;42.502;24.188;2023-03-13T11:19:38;95650.34;;;12.73;34.21
8366;BME280;4220;42.502;24.188;2023-03-13T11:22:45;95665.00;;;13.00;33.69
8366;BME280;4220;42.502;24.188;2023-03-13T11:25:24;95649.50;;;13.33;33.57
8366;BME280;4220;42.502;24.188;2023-03-13T11:28:05;95658.63;;;13.85;33.05
8366;BME280;4220;42.502;24.188;2023-03-13T11:30:48;95647.66;;;14.16;31.75
8366;BME280;4220;42.502;24.188;2023-03-13T11:33:27;95646.22;;;14.32;30.36
8366;BME280;4220;42.502;24.188;2023-03-13T11:36:00;95640.69;;;14.15;30.93
8366;BME280;4220;42.502;24.188;2023-03-13T11:38:32;95623.66;;;14.05;30.82
8366;BME280;4220;42.502;24.188;2023-03-13T11:41:22;95629.69;;;14.00;30.60
8366;BME280;4220;42.502;24.188;2023-03-13T11:44:09;95641.97;;;14.13;30.43
8366;BME280;4220;42.502;24.188;2023-03-13T11:46:48;95638.44;;;14.42;30.22
8366;BME280;4220;42.502;24.188;2023-03-13T11:52:34;95618.28;;;15.21;29.46
8366;BME280;4220;42.502;24.188;2023-03-13T11:55:27;95630.50;;;15.73;29.41
8366;BME280;4220;42.502;24.188;2023-03-13T11:58:09;95620.59;;;16.18;28.79
8366;BME280;4220;42.502;24.188;2023-03-13T12:00:41;95620.69;;;16.57;27.47
8366;BME280;4220;42.502;24.188;2023-03-13T12:03:14;95612.19;;;16.26;27.62
8366;BME280;4220;42.502;24.188;2023-03-13T12:05:44;95615.34;;;16.23;27.65
8366;BME280;4220;42.502;24.188;2023-03-13T12:08:17;95618.81;;;16.41;27.44
8366;BME280;4220;42.502;24.188;2023-03-13T12:10:53;95617.69;;;16.70;26.80
8366;BME280;4220;42.502;24.188;2023-03-13T12:13:28;95571.44;;;16.58;26.24
8366;BME280;4220;42.502;24.188;2023-03-13T12:16:00;95606.09;;;16.86;26.37
8366;BME280;4220;42.502;24.188;2023-03-13T12:18:31;95603.66;;;16.63;26.69
8366;BME280;4220;42.502;24.188;2023-03-13T12:21:03;95597.69;;;16.77;26.35
8366;BME280;4220;42.502;24.188;2023-03-13T12:23:47;95586.72;;;17.00;25.86
8366;BME280;4220;42.502;24.188;2023-03-13T12:26:18;95582.44;;;17.21;25.69
8366;BME280;4220;42.502;24.188;2023-03-13T12:29:00;95577.63;;;17.23;25.32
8366;BME280;4220;42.502;24.188;2023-03-13T12:31:31;95587.53;;;17.44;25.63
8366;BME280;4220;42.502;24.188;2023-03-13T12:34:06;95591.88;;;17.50;25.25
8366;BME280;4220;42.502;24.188;2023-03-13T12:36:40;95587.53;;;17.44;25.28
8366;BME280;4220;42.502;24.188;2023-03-13T12:39:19;95585.91;;;17.43;25.41
8366;BME280;4220;42.502;24.188;2023-03-13T12:41:56;95548.22;;;17.28;24.71
8366;BME280;4220;42.502;24.188;2023-03-13T12:44:32;95582.50;;;17.05;25.03
8366;BME280;4220;42.502;24.188;2023-03-13T12:47:06;95581.56;;;16.94;25.44
8366;BME280;4220;42.502;24.188;2023-03-13T12:50:11;95579.63;;;16.68;25.19
8366;BME280;4220;42.502;24.188;2023-03-13T12:56:01;95589.19;;;16.64;25.54
8366;BME280;4220;42.502;24.188;2023-03-13T12:58:47;95578.94;;;16.77;25.27
8366;BME280;4220;42.502;24.188;2023-03-13T13:01:30;95591.22;;;17.38;24.79
8366;BME280;4220;42.502;24.188;2023-03-13T13:04:01;95582.28;;;17.76;24.38
8366;BME280;4220;42.502;24.188;2023-03-13T13:06:50;95585.78;;;17.82;24.63
8366;BME280;4220;42.502;24.188;2023-03-13T13:09:21;95583.78;;;17.99;24.29
8366;BME280;4220;42.502;24.188;2023-03-13T13:11:49;95584.69;;;18.41;24.10
8366;BME280;4220;42.502;24.188;2023-03-13T13:20:29;95585.22;;;18.43;23.53
8366;BME280;4220;42.502;24.188;2023-03-13T13:22:57;95580.25;;;18.57;23.65
8366;BME280;4220;42.502;24.188;2023-03-13T13:25:41;95581.22;;;18.87;23.49
8366;BME280;4220;42.502;24.188;2023-03-13T13:28:22;95567.53;;;18.84;23.52
8366;BME280;4220;42.502;24.188;2023-03-13T13:30:52;95569.53;;;19.14;23.50
8366;BME280;4220;42.502;24.188;2023-03-13T13:33:44;95566.59;;;19.20;22.81
8366;BME280;4220;42.502;24.188;2023-03-13T13:36:29;95563.75;;;18.85;23.29
8366;BME280;4220;42.502;24.188;2023-03-13T13:38:57;95561.81;;;18.75;23.37
8366;BME280;4220;42.502;24.188;2023-03-13T13:41:38;95558.69;;;18.93;23.39
8366;BME280;4220;42.502;24.188;2023-03-13T13:44:55;95563.47;;;19.48;22.88
8366;BME280;4220;42.502;24.188;2023-03-13T13:47:24;95564.88;;;19.71;22.74
8366;BME280;4220;42.502;24.188;2023-03-13T13:49:54;95564.47;;;19.27;22.65